Time;durP1;ratioP1;P1;durP2;ratioP2;P2;SDS_P1;SDS_P2;PMS_P1;PMS_P2;Temp;Humidity;BMP_temperature;BMP_pressure;BME280_temperature;BME280_humidity;BME280_pressure;Samples;Min_cycle;Max_cycle;Signal;HPM_P1;HPM_P2
2022/08/20 00:00:24;;;;;;;12.30;5.57;;;17.90;99.90;;;;;;5075927;28;20362;-71
2022/08/20 00:02:53;;;;;;;9.57;5.13;;;17.90;99.90;;;;;;5076579;28;20055;-70
2022/08/20 00:05:25;;;;;;;9.98;4.90;;;17.90;99.90;;;;;;5076654;28;20048;-72
2022/08/20 00:07:51;;;;;;;10.32;4.90;;;18.00;99.90;;;;;;5076312;28;20036;-72
2022/08/20 00:10:17;;;;;;;11.60;4.60;;;17.90;99.90;;;;;;5075757;28;20043;-71
2022/08/20 00:12:45;;;;;;;9.00;4.65;;;18.00;99.90;;;;;;5076087;28;20109;-70
2022/08/20 00:15:12;;;;;;;14.25;5.00;;;18.00;99.90;;;;;;5076040;28;20044;-71
2022/08/20 00:17:39;;;;;;;9.23;4.93;;;17.90;99.90;;;;;;5075997;28;20048;-69
2022/08/20 00:20:08;;;;;;;10.48;4.68;;;17.90;99.90;;;;;;5075969;28;20070;-71
2022/08/20 00:22:34;;;;;;;9.48;4.63;;;17.80;99.90;;;;;;5092615;28;20071;-70
2022/08/20 00:25:00;;;;;;;13.70;4.90;;;17.80;99.90;;;;;;5085774;28;20447;-70
2022/08/20 00:27:25;;;;;;;12.50;5.65;;;17.80;99.90;;;;;;5075863;28;20460;-71
2022/08/20 00:29:51;;;;;;;15.35;6.03;;;17.70;99.90;;;;;;5058125;28;20056;-71
2022/08/20 00:32:17;;;;;;;14.30;5.65;;;17.60;99.90;;;;;;5075791;28;20524;-71
2022/08/20 00:34:42;;;;;;;9.02;5.57;;;17.60;99.90;;;;;;5075005;28;20059;-70
2022/08/20 00:37:08;;;;;;;11.52;5.63;;;17.60;99.90;;;;;;5074893;28;20040;-71
2022/08/20 00:39:34;;;;;;;14.93;6.10;;;17.50;99.90;;;;;;5074848;28;20039;-72
2022/08/20 00:42:00;;;;;;;14.18;5.70;;;17.50;99.90;;;;;;5075608;28;20370;-70
2022/08/20 00:44:26;;;;;;;15.07;5.88;;;17.50;99.90;;;;;;5075552;28;20070;-71
2022/08/20 00:46:53;;;;;;;13.35;5.70;;;17.50;99.90;;;;;;5075298;28;20457;-71
2022/08/20 00:49:26;;;;;;;13.02;6.28;;;17.50;99.90;;;;;;5074897;28;20083;-71
2022/08/20 00:52:04;;;;;;;12.07;5.37;;;17.40;99.90;;;;;;5075268;28;20059;-70
2022/08/20 00:54:55;;;;;;;14.77;4.72;;;17.40;99.90;;;;;;5057462;28;20048;-72
2022/08/20 00:57:35;;;;;;;12.23;4.65;;;17.30;99.90;;;;;;5065852;28;20455;-71
2022/08/20 01:00:05;;;;;;;13.98;4.40;;;17.30;99.90;;;;;;5074735;28;20557;-72
2022/08/20 01:02:31;;;;;;;18.30;5.45;;;17.40;99.90;;;;;;5075320;28;20071;-70
2022/08/20 01:04:57;;;;;;;15.93;5.25;;;17.30;99.90;;;;;;5074933;28;20344;-70
2022/08/20 01:07:33;;;;;;;13.90;3.75;;;17.40;99.90;;;;;;5075786;28;20523;-71
2022/08/20 01:10:26;;;;;;;12.15;3.33;;;17.40;99.90;;;;;;5075237;28;20127;-71
2022/08/20 01:12:56;;;;;;;13.27;3.40;;;17.50;99.90;;;;;;5071176;28;20061;-71
2022/08/20 01:15:24;;;;;;;17.23;4.45;;;17.50;99.90;;;;;;5090723;28;22019;-71
2022/08/20 01:17:57;;;;;;;12.27;4.07;;;17.50;99.90;;;;;;5075407;28;20340;-70
2022/08/20 01:20:30;;;;;;;11.68;4.22;;;17.50;99.90;;;;;;5075075;28;20094;-72
2022/08/20 01:23:28;;;;;;;8.35;3.00;;;17.50;99.90;;;;;;5075004;28;20431;-70
2022/08/20 01:26:01;;;;;;;13.13;3.38;;;17.60;99.90;;;;;;5074567;28;20400;-70
2022/08/20 01:28:44;;;;;;;13.73;4.18;;;17.60;99.90;;;;;;5074881;28;20076;-70
2022/08/20 01:31:22;;;;;;;11.50;3.10;;;17.60;99.90;;;;;;5074805;28;20063;-72
2022/08/20 01:33:49;;;;;;;9.60;3.42;;;17.70;99.90;;;;;;5075020;28;20037;-71
2022/08/20 01:36:17;;;;;;;14.77;3.92;;;17.70;99.90;;;;;;5074424;28;20059;-72
2022/08/20 01:38:43;;;;;;;14.38;3.58;;;17.60;99.90;;;;;;5056758;28;20052;-71
2022/08/20 01:41:24;;;;;;;13.43;4.22;;;17.60;99.90;;;;;;5074865;28;20418;-72
2022/08/20 01:43:55;;;;;;;11.73;3.42;;;17.50;99.90;;;;;;5057090;28;20532;-71
2022/08/20 01:46:23;;;;;;;10.07;3.58;;;17.50;99.90;;;;;;5076220;28;20093;-70
2022/08/20 01:48:49;;;;;;;9.70;3.15;;;17.50;99.90;;;;;;5078783;28;20052;-73
2022/08/20 01:51:19;;;;;;;15.15;3.45;;;17.40;99.90;;;;;;5078782;28;20051;-71
2022/08/20 01:53:48;;;;;;;11.55;3.63;;;17.40;99.90;;;;;;5078572;28;20040;-71
2022/08/20 01:56:24;;;;;;;11.07;2.78;;;17.40;99.90;;;;;;5061112;28;20048;-70
2022/08/20 01:58:53;;;;;;;10.63;3.30;;;17.30;99.90;;;;;;5059846;28;20052;-73
2022/08/20 02:01:28;;;;;;;13.57;3.67;;;17.30;99.90;;;;;;5098415;28;20505;-71
2022/08/20 02:03:55;;;;;;;11.18;2.97;;;17.20;99.90;;;;;;5098902;28;20048;-72
2022/08/20 02:06:27;;;;;;;9.63;2.45;;;17.20;99.90;;;;;;5088766;28;20052;-70
2022/08/20 02:09:03;;;;;;;10.13;3.53;;;17.20;99.90;;;;;;5078720;28;20075;-71
2022/08/20 02:11:30;;;;;;;11.77;3.40;;;17.20;99.90;;;;;;5078436;28;20044;-72
2022/08/20 02:13:56;;;;;;;12.93;3.25;;;17.20;99.90;;;;;;5060925;28;20136;-70
2022/08/20 02:16:29;;;;;;;11.13;3.47;;;17.10;99.90;;;;;;5060186;28;20056;-71
2022/08/20 02:19:01;;;;;;;13.80;4.03;;;17.20;99.90;;;;;;5060562;28;20437;-71
2022/08/20 02:21:31;;;;;;;11.80;3.10;;;17.10;99.90;;;;;;5078416;28;20089;-71
2022/08/20 02:23:58;;;;;;;8.50;4.03;;;17.10;99.90;;;;;;5078121;28;20366;-70
2022/08/20 02:26:25;;;;;;;12.70;3.30;;;17.00;99.90;;;;;;5064512;28;20089;-71
2022/08/20 02:28:52;;;;;;;7.50;2.58;;;17.00;99.90;;;;;;5077963;28;20451;-71
2022/08/20 02:31:19;;;;;;;11.57;3.15;;;17.00;99.90;;;;;;5078028;28;20057;-71
2022/08/20 02:33:45;;;;;;;11.35;3.28;;;16.90;99.90;;;;;;5078272;28;20418;-70
2022/08/20 02:36:13;;;;;;;10.13;3.33;;;16.90;99.90;;;;;;5077660;28;20051;-72
2022/08/20 02:38:39;;;;;;;11.88;2.90;;;16.90;99.90;;;;;;5077279;28;20109;-73
2022/08/20 02:41:06;;;;;;;10.38;3.60;;;16.90;99.90;;;;;;5077852;28;20072;-71
2022/08/20 02:43:31;;;;;;;8.00;2.65;;;16.90;99.90;;;;;;5077947;28;20052;-71
2022/08/20 02:45:58;;;;;;;8.57;3.03;;;16.90;99.90;;;;;;5077815;28;20051;-70
2022/08/20 02:48:24;;;;;;;9.98;2.67;;;16.80;99.90;;;;;;5077865;28;20448;-71
2022/08/20 02:50:55;;;;;;;12.07;3.70;;;16.80;99.90;;;;;;5077725;28;20040;-70
2022/08/20 02:53:22;;;;;;;8.82;2.75;;;16.80;99.90;;;;;;5077173;28;20048;-71
2022/08/20 02:55:47;;;;;;;13.85;2.65;;;16.80;99.90;;;;;;5077237;28;20045;-70
2022/08/20 02:58:13;;;;;;;9.52;3.17;;;16.70;99.90;;;;;;5076995;28;20412;-70
2022/08/20 03:00:39;;;;;;;8.45;2.85;;;16.70;99.90;;;;;;5060178;28;20041;-71
2022/08/20 03:03:07;;;;;;;10.77;3.63;;;16.70;99.90;;;;;;5077590;28;20055;-72
2022/08/20 03:05:34;;;;;;;9.00;3.42;;;16.60;99.90;;;;;;5077010;28;20501;-70
2022/08/20 03:07:59;;;;;;;11.88;2.60;;;16.60;99.90;;;;;;5059724;28;20040;-70
2022/08/20 03:10:32;;;;;;;9.68;3.08;;;16.50;99.90;;;;;;5077266;28;20150;-69
2022/08/20 03:12:59;;;;;;;6.40;2.60;;;16.50;99.90;;;;;;5077424;28;20063;-71
2022/08/20 03:15:25;;;;;;;13.75;3.40;;;16.40;99.90;;;;;;5076833;28;20048;-71
2022/08/20 03:17:51;;;;;;;11.70;3.22;;;16.40;99.90;;;;;;5060139;28;20439;-71
2022/08/20 03:20:16;;;;;;;8.98;2.92;;;16.40;99.90;;;;;;5077156;28;20447;-71
2022/08/20 03:22:42;;;;;;;10.35;4.03;;;16.30;99.90;;;;;;5077058;28;20037;-72
2022/08/20 03:25:08;;;;;;;11.85;3.38;;;16.30;99.90;;;;;;5077094;28;20455;-71
2022/08/20 03:27:34;;;;;;;15.50;3.33;;;16.20;99.90;;;;;;5092937;28;20189;-71
2022/08/20 03:29:59;;;;;;;9.73;2.85;;;16.20;99.90;;;;;;5078835;28;20468;-70
2022/08/20 03:32:25;;;;;;;12.05;3.17;;;16.20;99.90;;;;;;5097430;28;20040;-69
2022/08/20 03:34:50;;;;;;;9.02;3.17;;;16.10;99.90;;;;;;5097160;28;20063;-70
2022/08/20 03:37:16;;;;;;;11.55;3.20;;;16.00;99.90;;;;;;5081052;28;20043;-70
2022/08/20 03:39:42;;;;;;;10.68;3.90;;;16.00;99.90;;;;;;5076842;28;20447;-73
2022/08/20 03:42:07;;;;;;;9.13;2.78;;;15.90;99.90;;;;;;5058952;28;20106;-72
2022/08/20 03:44:35;;;;;;;9.95;3.03;;;16.00;99.90;;;;;;5059170;28;20048;-70
2022/08/20 03:47:06;;;;;;;9.90;2.80;;;15.90;99.90;;;;;;5076322;28;20049;-72
2022/08/20 03:49:32;;;;;;;12.70;2.90;;;15.90;99.90;;;;;;5076539;28;20255;-70
2022/08/20 03:51:58;;;;;;;7.40;2.75;;;15.80;99.90;;;;;;5076730;28;20048;-72
2022/08/20 03:54:24;;;;;;;6.20;2.30;;;15.70;99.90;;;;;;5076586;28;20045;-71
2022/08/20 03:56:50;;;;;;;9.45;2.95;;;15.70;99.90;;;;;;5076467;28;20366;-72
2022/08/20 03:59:15;;;;;;;11.25;2.80;;;15.60;99.90;;;;;;5075384;28;20044;-72
2022/08/20 04:01:41;;;;;;;9.32;3.33;;;15.60;99.90;;;;;;5076460;28;20044;-70
2022/08/20 04:04:06;;;;;;;10.07;3.25;;;15.60;99.90;;;;;;5075840;28;20036;-72
2022/08/20 04:06:32;;;;;;;9.27;2.80;;;15.50;99.90;;;;;;5076111;28;20052;-70
2022/08/20 04:08:58;;;;;;;9.95;3.30;;;15.50;99.90;;;;;;5075548;28;20049;-70
2022/08/20 04:11:23;;;;;;;10.18;3.00;;;15.50;99.90;;;;;;5076305;28;20076;-71
2022/08/20 04:13:49;;;;;;;11.25;3.30;;;15.50;99.90;;;;;;5076098;28;20044;-71
2022/08/20 04:16:14;;;;;;;8.60;3.00;;;15.50;99.90;;;;;;5076193;28;20051;-71
2022/08/20 04:18:40;;;;;;;10.60;3.58;;;15.40;99.90;;;;;;5058521;28;20405;-70
2022/08/20 04:21:06;;;;;;;10.07;2.83;;;15.40;99.90;;;;;;5076132;28;20127;-71
2022/08/20 04:23:31;;;;;;;6.18;2.53;;;15.40;99.90;;;;;;5058025;28;20136;-69
2022/08/20 04:25:57;;;;;;;10.30;2.45;;;15.30;99.90;;;;;;5074429;28;20043;-70
2022/08/20 04:28:26;;;;;;;9.57;2.63;;;15.40;99.90;;;;;;5075566;28;20051;-70
2022/08/20 04:30:57;;;;;;;12.60;3.33;;;15.30;99.90;;;;;;5075825;28;20132;-71
2022/08/20 04:33:25;;;;;;;7.53;2.47;;;15.30;99.90;;;;;;5058131;28;20060;-69
2022/08/20 04:35:51;;;;;;;7.43;2.72;;;15.30;99.90;;;;;;5058061;28;20044;-72
2022/08/20 04:38:19;;;;;;;6.95;2.70;;;15.30;99.90;;;;;;5075221;28;20112;-71
2022/08/20 04:40:57;;;;;;;9.88;3.50;;;15.30;99.90;;;;;;5075577;28;20097;-69
2022/08/20 04:43:37;;;;;;;10.73;2.92;;;15.30;99.90;;;;;;5075636;28;20051;-69
2022/08/20 04:46:05;;;;;;;8.32;3.60;;;15.30;99.90;;;;;;5075591;28;20131;-71
2022/08/20 04:48:31;;;;;;;7.45;2.70;;;15.30;99.90;;;;;;5075591;28;20052;-70
2022/08/20 04:50:58;;;;;;;14.25;3.78;;;15.30;99.90;;;;;;5074882;28;20048;-70
2022/08/20 04:53:26;;;;;;;9.57;2.55;;;15.20;99.90;;;;;;5075489;28;20040;-70
2022/08/20 04:55:54;;;;;;;9.52;3.05;;;15.20;99.90;;;;;;5074895;28;20509;-70
2022/08/20 04:58:32;;;;;;;7.15;2.70;;;15.20;99.90;;;;;;5075268;28;20040;-70
2022/08/20 05:01:02;;;;;;;8.75;2.83;;;15.20;99.90;;;;;;5023642;28;20426;-71
2022/08/20 05:03:29;;;;;;;11.13;4.13;;;15.20;99.90;;;;;;5075344;28;20044;-71
2022/08/20 05:05:55;;;;;;;9.80;3.78;;;15.20;99.90;;;;;;5057830;28;20044;-71
2022/08/20 05:08:22;;;;;;;7.63;3.63;;;15.30;99.90;;;;;;5075420;28;20045;-70
2022/08/20 05:10:49;;;;;;;8.30;2.88;;;15.20;99.90;;;;;;5074594;28;20120;-71
2022/08/20 05:13:15;;;;;;;5.65;3.10;;;15.20;99.90;;;;;;5074964;28;20378;-70
2022/08/20 05:15:41;;;;;;;9.80;3.10;;;15.20;99.90;;;;;;5075415;28;20058;-70
2022/08/20 05:18:07;;;;;;;6.80;2.95;;;15.20;99.90;;;;;;5075182;28;20048;-70
2022/08/20 05:20:38;;;;;;;7.68;3.28;;;15.20;99.90;;;;;;5074657;28;20446;-71
2022/08/20 05:23:06;;;;;;;7.35;2.72;;;15.30;99.90;;;;;;5075188;28;20051;-69
2022/08/20 05:25:33;;;;;;;13.35;3.35;;;15.30;99.90;;;;;;5074508;28;20106;-69
2022/08/20 05:28:01;;;;;;;12.40;3.40;;;15.30;99.90;;;;;;5075002;28;20051;-71
2022/08/20 05:30:32;;;;;;;12.45;3.25;;;15.30;99.90;;;;;;5056445;28;20367;-70
2022/08/20 05:33:02;;;;;;;9.98;3.08;;;15.30;99.90;;;;;;5074984;28;20127;-70
2022/08/20 05:35:28;;;;;;;12.10;4.20;;;15.30;99.90;;;;;;5075226;28;20113;-72
2022/08/20 05:37:54;;;;;;;7.32;2.90;;;15.20;99.90;;;;;;5074941;28;20051;-72
2022/08/20 05:40:21;;;;;;;11.07;3.90;;;15.30;99.90;;;;;;5182161;22;20048;-70
2022/08/20 05:42:47;;;;;;;7.28;3.45;;;15.30;99.90;;;;;;5054385;28;20067;-70
2022/08/20 05:45:15;;;;;;;10.82;3.97;;;15.40;99.90;;;;;;5068816;28;20079;-71
2022/08/20 05:47:41;;;;;;;10.52;3.50;;;15.40;99.90;;;;;;5074758;28;20041;-72
2022/08/20 05:50:08;;;;;;;10.35;3.92;;;15.50;99.90;;;;;;5074523;28;20455;-72
2022/08/20 05:52:34;;;;;;;11.38;3.30;;;15.50;99.90;;;;;;5074835;28;20049;-71
2022/08/20 05:54:59;;;;;;;10.10;3.20;;;15.50;99.90;;;;;;5073236;28;20053;-71
2022/08/20 05:57:25;;;;;;;11.43;3.75;;;15.60;99.90;;;;;;5074696;28;20041;-71
2022/08/20 05:59:51;;;;;;;12.02;3.70;;;15.70;99.90;;;;;;5074614;28;20037;-72
2022/08/20 06:05:02;;;;;;;8.60;3.50;;;15.70;99.90;;;;;;5074631;28;20052;-69
2022/08/20 06:07:28;;;;;;;16.05;3.47;;;15.80;99.90;;;;;;5074643;28;20664;-70
2022/08/20 06:09:53;;;;;;;9.88;3.47;;;15.80;99.90;;;;;;5073985;28;20103;-69
2022/08/20 06:12:19;;;;;;;10.02;3.90;;;15.80;99.90;;;;;;5073083;28;20059;-68
2022/08/20 06:14:46;;;;;;;11.60;3.45;;;15.80;99.90;;;;;;5056940;28;20052;-69
2022/08/20 06:17:17;;;;;;;9.90;3.58;;;15.80;99.90;;;;;;5074547;28;20044;-69
2022/08/20 06:19:45;;;;;;;9.68;4.57;;;15.90;99.90;;;;;;5072652;28;20137;-71
2022/08/20 06:22:12;;;;;;;12.30;3.58;;;15.90;99.90;;;;;;5074267;28;20375;-67
2022/08/20 06:24:38;;;;;;;17.40;4.40;;;16.00;99.90;;;;;;5074705;28;20417;-67
2022/08/20 06:27:05;;;;;;;16.23;4.70;;;16.00;99.90;;;;;;5056396;28;20127;-70
2022/08/20 06:29:32;;;;;;;21.05;4.22;;;16.10;99.90;;;;;;5072645;28;20075;-68
2022/08/20 06:31:58;;;;;;;9.40;4.43;;;16.20;99.90;;;;;;5056578;28;20070;-70
2022/08/20 06:34:27;;;;;;;9.85;3.50;;;16.20;99.90;;;;;;5075622;28;20079;-67
2022/08/20 06:36:56;;;;;;;11.48;3.50;;;16.30;99.90;;;;;;5077807;28;20048;-72
2022/08/20 06:39:23;;;;;;;12.88;3.75;;;16.30;99.90;;;;;;5078041;28;20059;-69
2022/08/20 06:41:50;;;;;;;10.95;3.97;;;16.50;99.90;;;;;;5077882;28;20037;-69
2022/08/20 06:44:17;;;;;;;10.98;3.22;;;16.50;99.90;;;;;;5076681;28;20409;-70
2022/08/20 06:46:42;;;;;;;10.05;3.22;;;16.60;99.90;;;;;;5077888;28;20110;-69
2022/08/20 06:49:08;;;;;;;8.88;2.95;;;16.70;99.90;;;;;;5077703;28;20048;-69
2022/08/20 06:51:36;;;;;;;12.63;3.67;;;16.80;99.90;;;;;;5060048;28;20378;-69
2022/08/20 06:54:03;;;;;;;13.20;3.63;;;16.90;99.90;;;;;;5076219;28;20479;-70
2022/08/20 06:56:28;;;;;;;10.82;3.30;;;17.00;99.90;;;;;;5077684;28;20059;-71
2022/08/20 06:58:54;;;;;;;8.68;3.15;;;17.10;99.90;;;;;;5077695;28;20052;-69
2022/08/20 07:01:19;;;;;;;14.68;3.55;;;17.10;99.90;;;;;;5077686;28;20037;-68
2022/08/20 07:03:48;;;;;;;8.90;3.42;;;17.30;99.90;;;;;;5075929;28;20067;-68
2022/08/20 07:06:14;;;;;;;10.27;3.42;;;17.40;99.90;;;;;;5077418;28;20048;-70
2022/08/20 07:08:41;;;;;;;9.43;3.38;;;17.50;99.90;;;;;;5077327;28;20481;-70
2022/08/20 07:11:07;;;;;;;9.25;4.50;;;17.60;99.90;;;;;;5077383;28;20052;-70
2022/08/20 07:13:35;;;;;;;11.10;3.17;;;17.70;99.90;;;;;;5076186;28;20044;-70
2022/08/20 07:16:01;;;;;;;14.65;3.33;;;17.80;99.90;;;;;;5076723;28;20066;-70
2022/08/20 07:18:27;;;;;;;9.55;3.25;;;17.90;99.90;;;;;;5077647;28;20057;-70
2022/08/20 07:20:55;;;;;;;13.50;3.83;;;18.00;99.90;;;;;;5077226;28;20047;-70
2022/08/20 07:23:22;;;;;;;16.17;4.13;;;18.10;99.90;;;;;;5076411;28;20050;-69
2022/08/20 07:25:48;;;;;;;11.32;3.30;;;18.20;99.90;;;;;;5077230;28;20095;-70
2022/08/20 07:28:17;;;;;;;13.40;3.03;;;18.40;99.90;;;;;;5076691;28;20088;-70
2022/08/20 07:33:29;;;;;;;13.00;2.85;;;18.60;99.90;;;;;;5075549;28;20080;-70
2022/08/20 07:36:02;;;;;;;13.00;4.35;;;18.60;99.90;;;;;;5075987;28;20450;-70
2022/08/20 07:38:29;;;;;;;8.57;2.63;;;18.70;99.90;;;;;;5056711;28;20060;-70
2022/08/20 07:40:58;;;;;;;12.50;2.83;;;18.80;99.90;;;;;;5057011;28;20060;-70
2022/08/20 07:43:24;;;;;;;11.73;3.60;;;18.90;99.90;;;;;;5063650;28;20051;-69
2022/08/20 07:45:54;;;;;;;11.25;3.53;;;18.90;99.90;;;;;;5059480;28;20054;-69
2022/08/20 07:48:21;;;;;;;11.00;3.80;;;19.00;99.90;;;;;;5076688;28;20098;-70
2022/08/20 07:50:48;;;;;;;13.75;3.90;;;19.00;99.90;;;;;;5054421;28;20045;-70
2022/08/20 07:53:15;;;;;;;11.45;3.42;;;19.00;99.90;;;;;;5074911;28;20111;-70
2022/08/20 07:55:41;;;;;;;16.27;3.28;;;19.10;99.90;;;;;;5058761;28;20052;-69
2022/08/20 07:58:13;;;;;;;8.90;3.53;;;19.20;99.90;;;;;;5076620;28;20072;-70
2022/08/20 08:00:39;;;;;;;9.73;2.92;;;19.10;99.90;;;;;;5076487;28;20083;-69
2022/08/20 08:03:05;;;;;;;9.85;3.58;;;19.10;99.90;;;;;;5075396;28;20063;-70
2022/08/20 08:05:34;;;;;;;10.57;3.90;;;19.20;99.90;;;;;;5076327;28;20101;-69
2022/08/20 08:08:00;;;;;;;12.45;3.65;;;19.20;99.90;;;;;;5058897;28;20057;-71
2022/08/20 08:10:26;;;;;;;12.27;3.63;;;19.20;99.90;;;;;;5058488;28;20159;-71
2022/08/20 08:12:59;;;;;;;13.25;3.95;;;19.30;99.90;;;;;;5075238;28;20134;-69
2022/08/20 08:15:28;;;;;;;14.25;3.70;;;19.30;99.90;;;;;;5075920;28;20045;-68
2022/08/20 08:17:57;;;;;;;15.45;3.97;;;19.40;99.90;;;;;;5076197;28;20044;-68
2022/08/20 08:20:22;;;;;;;15.70;4.05;;;19.50;99.90;;;;;;5076112;28;20048;-69
2022/08/20 08:22:49;;;;;;;12.27;3.30;;;19.60;99.90;;;;;;5075097;28;20454;-68
2022/08/20 08:25:15;;;;;;;15.57;4.43;;;19.70;99.90;;;;;;5075682;28;20066;-69
2022/08/20 08:27:42;;;;;;;12.02;3.20;;;19.70;99.90;;;;;;5074776;28;20059;-68
2022/08/20 08:30:09;;;;;;;8.82;3.10;;;19.70;99.90;;;;;;5075776;28;20045;-68
2022/08/20 08:33:26;;;;;;;12.95;3.28;;;19.60;99.90;;;;;;5075336;28;20052;-68
2022/08/20 08:35:24;;;;;;;10.20;2.85;;;19.50;99.90;;;;;;5060997;28;20052;-68
2022/08/20 08:37:50;;;;;;;10.77;3.40;;;19.50;99.90;;;;;;5073827;28;20454;-68
2022/08/20 08:40:16;;;;;;;9.18;3.00;;;19.60;99.90;;;;;;5075637;28;20053;-68
2022/08/20 08:42:49;;;;;;;8.60;2.47;;;19.70;99.90;;;;;;5074873;28;20052;-69
2022/08/20 08:45:16;;;;;;;12.83;3.10;;;19.60;99.90;;;;;;5071266;28;20436;-69
2022/08/20 08:47:43;;;;;;;10.18;3.08;;;19.60;99.90;;;;;;5075812;28;20375;-69
2022/08/20 08:50:23;;;;;;;9.43;3.45;;;19.70;99.90;;;;;;5075411;28;20044;-70
2022/08/20 08:52:58;;;;;;;12.18;3.45;;;19.70;99.90;;;;;;5074411;28;20123;-70
2022/08/20 08:55:24;;;;;;;12.63;3.30;;;19.80;99.90;;;;;;5074584;28;20195;-70
2022/08/20 08:57:54;;;;;;;11.18;3.30;;;19.80;99.90;;;;;;5075079;28;20055;-71
2022/08/20 09:00:20;;;;;;;11.40;3.10;;;19.90;99.90;;;;;;5075439;28;20374;-71
2022/08/20 09:03:08;;;;;;;12.52;3.17;;;19.90;99.90;;;;;;5074100;28;20140;-69
2022/08/20 09:05:43;;;;;;;8.35;2.83;;;20.00;99.90;;;;;;5055265;28;20060;-68
2022/08/20 09:08:13;;;;;;;10.25;3.03;;;20.00;99.90;;;;;;5055355;28;20106;-71
2022/08/20 09:10:38;;;;;;;12.32;3.13;;;20.10;99.90;;;;;;5055216;28;20051;-69
2022/08/20 09:13:06;;;;;;;11.75;3.20;;;20.20;99.90;;;;;;5056849;28;20119;-71
2022/08/20 09:15:31;;;;;;;14.00;4.35;;;20.30;99.90;;;;;;5075022;28;20060;-70
2022/08/20 09:17:57;;;;;;;12.40;3.50;;;20.50;99.90;;;;;;5075276;28;20052;-71
2022/08/20 09:20:23;;;;;;;10.70;3.40;;;20.40;99.90;;;;;;5075138;28;20454;-72
2022/08/20 09:22:48;;;;;;;12.70;3.60;;;20.40;99.90;;;;;;5074399;28;20045;-70
2022/08/20 09:25:15;;;;;;;13.30;4.18;;;20.40;99.90;;;;;;5075099;28;20113;-71
2022/08/20 09:27:40;;;;;;;12.60;3.78;;;20.30;99.90;;;;;;5074952;28;20123;-73
2022/08/20 09:30:07;;;;;;;13.50;3.47;;;20.20;99.90;;;;;;5075061;28;20127;-72
2022/08/20 09:32:33;;;;;;;12.30;3.70;;;20.10;99.90;;;;;;5074691;28;20063;-72
2022/08/20 09:34:59;;;;;;;11.05;3.30;;;20.00;99.90;;;;;;5074099;28;20049;-72
2022/08/20 09:37:30;;;;;;;10.73;3.17;;;20.00;99.90;;;;;;5074976;28;20127;-72
2022/08/20 09:39:56;;;;;;;10.90;3.03;;;20.00;99.90;;;;;;5074551;28;20064;-72
2022/08/20 09:42:25;;;;;;;13.25;3.88;;;20.10;99.90;;;;;;5074772;28;20056;-72
2022/08/20 09:44:50;;;;;;;13.88;3.50;;;20.30;99.90;;;;;;5073710;28;20118;-72
2022/08/20 09:47:16;;;;;;;11.23;3.65;;;20.20;99.90;;;;;;5054195;28;20048;-72
2022/08/20 09:49:43;;;;;;;9.25;2.83;;;20.30;99.90;;;;;;5074677;28;20151;-72
2022/08/20 09:52:12;;;;;;;9.45;3.28;;;20.50;99.90;;;;;;5074818;28;20134;-72
2022/08/20 09:54:39;;;;;;;8.50;3.30;;;20.60;99.90;;;;;;5073588;28;20052;-72
2022/08/20 09:57:07;;;;;;;12.70;3.30;;;20.50;99.90;;;;;;5074224;28;20455;-72
2022/08/20 09:59:34;;;;;;;14.13;3.90;;;20.60;99.90;;;;;;5074666;28;20032;-72
2022/08/20 10:02:00;;;;;;;7.50;2.47;;;20.60;99.90;;;;;;5073370;28;20521;-72
2022/08/20 10:04:25;;;;;;;8.45;3.13;;;20.70;99.90;;;;;;5038252;28;20094;-72
2022/08/20 10:06:51;;;;;;;15.00;3.10;;;20.90;99.90;;;;;;5075806;28;20063;-72
2022/08/20 10:09:17;;;;;;;13.05;3.00;;;21.00;99.70;;;;;;5078534;28;20041;-72
2022/08/20 10:11:43;;;;;;;10.90;3.25;;;21.00;99.00;;;;;;5077188;28;20528;-72
2022/08/20 10:14:09;;;;;;;8.25;2.92;;;20.90;98.30;;;;;;5078495;28;20047;-72
2022/08/20 10:16:35;;;;;;;8.15;3.10;;;21.00;98.80;;;;;;5078308;28;20044;-72
2022/08/20 10:19:02;;;;;;;10.65;3.92;;;20.80;98.10;;;;;;5060848;28;20048;-72
2022/08/20 10:21:29;;;;;;;10.57;3.35;;;20.80;97.40;;;;;;5077389;28;20094;-72
2022/08/20 10:23:55;;;;;;;8.80;2.80;;;20.90;99.10;;;;;;5058072;28;20044;-72
2022/08/20 10:26:21;;;;;;;7.82;2.97;;;21.10;98.70;;;;;;5078488;28;20139;-72
2022/08/20 10:28:47;;;;;;;9.07;2.92;;;21.10;98.70;;;;;;5078135;28;20068;-73
2022/08/20 10:31:12;;;;;;;9.27;2.90;;;21.10;98.90;;;;;;5078231;28;20056;-72
2022/08/20 10:33:39;;;;;;;8.75;3.13;;;21.30;99.20;;;;;;5077279;28;20053;-73
2022/08/20 10:36:11;;;;;;;9.63;3.35;;;21.10;98.30;;;;;;5077859;28;20044;-72
2022/08/20 10:38:37;;;;;;;8.60;2.72;;;21.20;99.00;;;;;;5077746;28;20036;-72
2022/08/20 10:41:03;;;;;;;11.43;3.13;;;21.30;98.40;;;;;;5077871;28;20466;-72
2022/08/20 10:43:28;;;;;;;9.52;3.40;;;21.30;97.30;;;;;;5076958;28;20127;-73
2022/08/20 10:45:54;;;;;;;9.40;2.72;;;21.40;97.40;;;;;;5078213;28;20450;-72
2022/08/20 10:48:20;;;;;;;11.23;3.50;;;21.50;96.60;;;;;;5077953;28;20045;-72
2022/08/20 10:50:45;;;;;;;9.15;3.25;;;21.60;96.50;;;;;;5077849;28;20036;-73
2022/08/20 10:53:11;;;;;;;10.80;3.42;;;21.70;97.40;;;;;;5076796;28;20044;-72
2022/08/20 10:55:37;;;;;;;8.98;3.05;;;21.80;97.50;;;;;;5077549;28;20045;-72
2022/08/20 10:58:06;;;;;;;8.15;2.78;;;21.70;95.90;;;;;;5077678;28;20041;-72
2022/08/20 11:00:32;;;;;;;9.13;3.75;;;21.70;96.30;;;;;;5077616;28;20518;-73
2022/08/20 11:02:58;;;;;;;11.20;2.90;;;21.70;97.40;;;;;;5076636;28;20079;-72
2022/08/20 11:05:24;;;;;;;15.07;3.58;;;21.60;96.90;;;;;;5077053;28;20041;-72
2022/08/20 11:07:50;;;;;;;7.60;2.95;;;21.80;96.40;;;;;;5077417;28;20463;-73
2022/08/20 11:10:15;;;;;;;13.73;3.63;;;21.80;96.80;;;;;;5077330;28;20040;-72
2022/08/20 11:12:42;;;;;;;15.15;3.65;;;21.80;97.20;;;;;;5076277;28;20052;-72
2022/08/20 11:15:08;;;;;;;11.23;3.30;;;21.90;96.00;;;;;;5077276;28;20045;-72
2022/08/20 11:17:35;;;;;;;9.57;3.30;;;22.00;95.50;;;;;;5077301;28;20059;-72
2022/08/20 11:20:04;;;;;;;9.63;3.70;;;21.80;96.00;;;;;;5076799;28;20059;-72
2022/08/20 11:22:29;;;;;;;7.75;3.05;;;21.60;95.60;;;;;;5076390;28;20064;-72
2022/08/20 11:24:55;;;;;;;9.27;2.83;;;21.50;95.90;;;;;;5077185;28;20052;-72
2022/08/20 11:27:25;;;;;;;8.15;3.08;;;21.60;95.50;;;;;;5059390;28;20101;-73
2022/08/20 11:29:51;;;;;;;10.35;3.72;;;21.60;95.50;;;;;;5076908;28;20076;-72
2022/08/20 11:32:17;;;;;;;11.80;3.80;;;21.50;95.70;;;;;;5075929;28;20036;-72
2022/08/20 11:34:43;;;;;;;10.85;3.38;;;21.50;96.10;;;;;;5076863;28;20063;-72
2022/08/20 11:37:10;;;;;;;6.30;3.03;;;21.30;95.60;;;;;;5076719;28;20044;-72
2022/08/20 11:39:36;;;;;;;7.60;3.08;;;21.30;96.00;;;;;;5076736;28;20056;-72
2022/08/20 11:42:02;;;;;;;9.02;3.42;;;21.50;96.10;;;;;;5075990;28;20060;-72
2022/08/20 11:44:27;;;;;;;7.88;2.97;;;21.40;97.00;;;;;;5076779;28;20340;-72
2022/08/20 11:46:53;;;;;;;10.38;3.13;;;21.40;96.70;;;;;;5059135;28;20463;-72
2022/08/20 11:49:19;;;;;;;8.77;3.30;;;21.50;95.90;;;;;;5076606;28;20076;-73
2022/08/20 11:51:45;;;;;;;8.40;2.75;;;21.80;97.10;;;;;;5075666;28;20446;-72
2022/08/20 11:54:10;;;;;;;6.05;2.72;;;22.10;95.50;;;;;;5076282;28;20040;-73
2022/08/20 11:56:36;;;;;;;7.80;3.03;;;22.00;94.90;;;;;;5076560;28;20084;-73
2022/08/20 11:59:01;;;;;;;6.45;2.63;;;21.70;94.10;;;;;;5076487;28;20091;-72
2022/08/20 12:01:27;;;;;;;10.65;3.30;;;21.80;95.10;;;;;;5076747;28;20071;-73
2022/08/20 12:03:53;;;;;;;10.02;2.85;;;21.90;95.30;;;;;;5040168;28;20446;-72
2022/08/20 12:06:18;;;;;;;8.90;3.00;;;21.80;94.80;;;;;;5076524;28;20048;-72
2022/08/20 12:08:44;;;;;;;7.00;3.08;;;21.90;95.10;;;;;;5076020;28;20060;-73
2022/08/20 12:11:09;;;;;;;6.32;2.90;;;21.90;94.90;;;;;;5076179;28;20040;-73
2022/08/20 12:13:36;;;;;;;8.25;2.80;;;21.80;94.10;;;;;;5075328;28;20044;-72
2022/08/20 12:16:02;;;;;;;9.23;3.05;;;21.90;94.30;;;;;;5076196;28;20040;-72
2022/08/20 12:18:27;;;;;;;8.43;2.75;;;21.90;94.60;;;;;;5058794;28;20063;-72
2022/08/20 12:20:53;;;;;;;9.35;3.35;;;22.00;95.10;;;;;;5076177;28;20478;-73
2022/08/20 12:23:19;;;;;;;7.60;2.78;;;22.00;94.40;;;;;;5073918;28;20040;-73
2022/08/20 12:25:44;;;;;;;8.95;3.25;;;22.00;93.90;;;;;;5075900;28;20051;-72
2022/08/20 12:28:13;;;;;;;7.03;2.42;;;21.80;93.90;;;;;;5075862;28;20131;-72
2022/08/20 12:30:39;;;;;;;6.72;2.47;;;21.90;92.70;;;;;;5075169;28;20103;-72
2022/08/20 12:33:05;;;;;;;13.25;4.05;;;21.80;93.20;;;;;;5074875;28;20079;-73
2022/08/20 12:35:31;;;;;;;8.55;3.40;;;21.80;93.50;;;;;;5057839;28;20123;-73
2022/08/20 12:37:57;;;;;;;9.60;2.83;;;22.00;94.20;;;;;;5075683;28;20166;-73
2022/08/20 12:40:25;;;;;;;8.85;3.00;;;22.20;94.60;;;;;;5075803;28;20084;-73
2022/08/20 12:42:51;;;;;;;9.43;2.95;;;22.50;94.30;;;;;;5074715;28;20059;-73
2022/08/20 12:45:17;;;;;;;5.90;2.40;;;22.60;92.90;;;;;;5057956;28;20037;-73
2022/08/20 12:47:45;;;;;;;6.80;2.80;;;22.50;93.00;;;;;;5075680;28;20111;-73